createdAt,value
2019-03-22T00:01:44.589Z,96724.56
2019-03-22T00:04:13.160Z,96715.23
2019-03-22T00:06:41.659Z,96719.83
2019-03-22T00:09:11.605Z,96719.78
2019-03-22T00:11:40.183Z,96712.48
2019-03-22T00:14:08.648Z,96719.20
2019-03-22T00:16:37.254Z,96711.14
2019-03-22T00:19:05.867Z,96712.41
2019-03-22T00:21:34.331Z,96707.75
2019-03-22T00:24:02.851Z,96705.63
2019-03-22T00:26:32.529Z,96707.33
2019-03-22T00:29:01.539Z,96708.55
2019-03-22T00:31:30.077Z,96709.81
2019-03-22T00:33:58.613Z,96707.59
2019-03-22T00:36:27.163Z,96706.63
2019-03-22T00:38:55.802Z,96707.33
2019-03-22T00:41:24.336Z,96699.15
2019-03-22T00:43:53.011Z,96699.03
2019-03-22T00:46:21.543Z,96694.59
2019-03-22T00:48:50.077Z,96694.35
2019-03-22T00:51:18.611Z,96692.42
2019-03-22T00:53:47.186Z,96696.52
2019-03-22T00:56:15.661Z,96692.95
2019-03-22T00:58:44.195Z,96691.94
2019-03-22T01:01:15.200Z,96698.09
2019-03-22T01:03:43.828Z,96695.72
2019-03-22T01:06:12.448Z,96696.31
2019-03-22T01:08:40.994Z,96702.81
2019-03-22T01:11:09.605Z,96699.23
2019-03-22T01:13:38.222Z,96697.31
2019-03-22T01:16:06.714Z,96697.95
2019-03-22T01:18:35.322Z,96688.94
2019-03-22T01:21:03.886Z,96683.79
2019-03-22T01:23:32.485Z,96682.02
2019-03-22T01:26:01.088Z,96685.23
2019-03-22T01:28:29.618Z,96692.27
2019-03-22T01:30:58.232Z,96692.53
2019-03-22T01:33:26.766Z,96690.10
2019-03-22T01:35:55.372Z,96691.20
2019-03-22T01:38:24.015Z,96682.13
2019-03-22T01:40:52.545Z,96691.36
2019-03-22T01:43:21.167Z,96692.98
2019-03-22T01:45:49.775Z,96697.64
2019-03-22T01:48:18.313Z,96699.23
2019-03-22T01:50:46.888Z,96698.38
2019-03-22T01:53:15.569Z,96694.97
2019-03-22T01:55:44.183Z,96700.01
2019-03-22T01:58:12.758Z,96698.63
2019-03-22T02:00:47.379Z,96698.13
2019-03-22T02:03:13.251Z,96695.44
2019-03-22T02:05:48.899Z,96689.81
2019-03-22T02:08:17.795Z,96700.36
2019-03-22T02:10:46.428Z,96697.77
2019-03-22T02:13:14.972Z,96696.98
2019-03-22T02:15:43.680Z,96691.44
2019-03-22T02:18:12.226Z,96691.44
2019-03-22T02:20:43.297Z,96688.61
2019-03-22T02:23:11.905Z,96686.48
2019-03-22T02:25:40.490Z,96684.89
2019-03-22T02:28:09.186Z,96686.22
2019-03-22T02:30:37.663Z,96682.86
2019-03-22T02:33:06.271Z,96677.41
2019-03-22T02:35:34.909Z,96676.14
2019-03-22T02:38:03.481Z,96673.69
2019-03-22T02:40:31.981Z,96669.11
2019-03-22T02:43:00.520Z,96671.23
2019-03-22T02:45:29.123Z,96668.76
2019-03-22T02:47:57.731Z,96672.20
2019-03-22T02:50:26.380Z,96665.02
2019-03-22T02:52:54.844Z,96670.94
2019-03-22T02:55:23.379Z,96668.91
2019-03-22T02:57:51.963Z,96674.47
2019-03-22T03:00:20.598Z,96678.69
2019-03-22T03:02:49.265Z,96673.61
2019-03-22T03:05:17.883Z,96672.77
2019-03-22T03:07:46.514Z,96671.94
2019-03-22T03:10:16.421Z,96671.94
2019-03-22T03:12:45.361Z,96671.52
2019-03-22T03:15:20.089Z,96670.31
2019-03-22T03:17:50.732Z,96679.24
2019-03-22T03:20:19.938Z,96683.05
2019-03-22T03:22:48.590Z,96681.30
2019-03-22T03:25:18.115Z,96677.14
2019-03-22T03:27:46.785Z,96679.73
2019-03-22T03:30:17.907Z,96681.14
2019-03-22T03:32:46.553Z,96681.70
2019-03-22T03:35:17.623Z,96679.25
2019-03-22T03:37:46.149Z,96678.03
2019-03-22T03:40:17.597Z,96675.52
2019-03-22T03:42:46.089Z,96677.32
2019-03-22T03:45:31.952Z,96676.55
2019-03-22T03:48:02.647Z,96673.30
2019-03-22T03:50:31.263Z,96673.78
2019-03-22T03:52:59.871Z,96677.75
2019-03-22T03:55:29.230Z,96682.02
2019-03-22T03:57:58.205Z,96678.66
2019-03-22T04:00:28.146Z,96681.30
2019-03-22T04:02:56.767Z,96682.66
2019-03-22T04:05:25.782Z,96684.89
2019-03-22T04:07:54.323Z,96675.59
2019-03-22T04:10:22.965Z,96675.23
2019-03-22T04:12:51.537Z,96676.16
2019-03-22T04:15:20.209Z,96677.90
2019-03-22T04:17:48.826Z,96679.55
2019-03-22T04:20:17.362Z,96687.22
2019-03-22T04:22:45.896Z,96687.69
2019-03-22T04:25:14.474Z,96686.42
2019-03-22T04:27:43.021Z,96687.33
2019-03-22T04:30:11.723Z,96685.04
2019-03-22T04:32:40.215Z,96682.92
2019-03-22T04:35:14.447Z,96689.27
2019-03-22T04:37:43.081Z,96687.58
2019-03-22T04:40:26.651Z,96692.66
2019-03-22T04:42:55.283Z,96682.02
2019-03-22T04:45:26.658Z,96676.94
2019-03-22T04:48:03.994Z,96677.84
2019-03-22T04:50:34.847Z,96675.44
2019-03-22T04:53:04.413Z,96680.52
2019-03-22T04:55:34.552Z,96685.23
2019-03-22T04:58:04.019Z,96680.56
2019-03-22T05:00:33.825Z,96677.66
2019-03-22T05:03:03.459Z,96684.39
2019-03-22T05:05:33.514Z,96681.05
2019-03-22T05:08:02.881Z,96674.38
2019-03-22T05:10:32.819Z,96677.82
2019-03-22T05:13:02.451Z,96676.19
2019-03-22T05:15:32.983Z,96676.19
2019-03-22T05:18:02.937Z,96666.52
2019-03-22T05:20:33.821Z,96671.73
2019-03-22T05:23:03.694Z,96666.75
2019-03-22T05:25:34.401Z,96667.31
2019-03-22T05:28:04.713Z,96672.88
2019-03-22T05:30:51.208Z,96670.39
2019-03-22T05:33:19.685Z,96670.89
2019-03-22T05:35:50.860Z,96667.49
2019-03-22T05:38:19.395Z,96657.83
2019-03-22T05:40:47.934Z,96663.86
2019-03-22T05:43:16.402Z,96662.73
2019-03-22T05:45:47.680Z,96666.66
2019-03-22T05:48:16.294Z,96666.40
2019-03-22T05:50:44.834Z,96667.79
2019-03-22T05:53:13.374Z,96664.46
2019-03-22T05:55:41.984Z,96668.39
2019-03-22T05:58:10.599Z,96666.82
2019-03-22T06:00:39.147Z,96669.05
2019-03-22T06:03:07.685Z,96670.37
2019-03-22T06:05:36.221Z,96676.41
2019-03-22T06:08:04.827Z,96673.94
2019-03-22T06:10:33.368Z,96680.41
2019-03-22T06:13:01.852Z,96682.53
2019-03-22T06:15:30.391Z,96687.71
2019-03-22T06:17:58.929Z,96688.20
2019-03-22T06:20:27.536Z,96686.63
2019-03-22T06:22:56.039Z,96679.98
2019-03-22T06:25:24.506Z,96683.06
2019-03-22T06:27:53.130Z,96678.14
2019-03-22T06:30:23.331Z,96669.36
2019-03-22T06:32:51.955Z,96682.30
2019-03-22T06:35:20.489Z,96676.94
2019-03-22T06:37:49.133Z,96679.59
2019-03-22T06:40:17.774Z,96688.54
2019-03-22T06:42:46.380Z,96691.66
2019-03-22T06:45:15.030Z,96680.37
2019-03-22T06:47:49.242Z,96690.27
2019-03-22T06:50:17.838Z,96694.30
2019-03-22T06:52:46.382Z,96686.37
2019-03-22T06:55:15.030Z,96691.19
2019-03-22T06:57:43.572Z,96697.66
2019-03-22T07:00:13.615Z,96684.64
2019-03-22T07:02:42.185Z,96680.55
2019-03-22T07:05:13.451Z,96683.28
2019-03-22T07:07:41.037Z,96690.26
2019-03-22T07:10:10.141Z,96690.44
2019-03-22T07:12:38.754Z,96688.02
2019-03-22T07:15:08.173Z,96685.18
2019-03-22T07:17:36.823Z,96687.00
2019-03-22T07:20:06.723Z,96695.67
2019-03-22T07:22:36.490Z,96703.41
2019-03-22T07:25:07.303Z,96715.00
2019-03-22T07:27:37.546Z,96717.63
2019-03-22T07:30:18.651Z,96712.58
2019-03-22T07:32:41.718Z,96714.78
2019-03-22T07:35:10.443Z,96712.78
2019-03-22T07:37:39.081Z,96715.41
2019-03-22T07:40:08.846Z,96709.55
2019-03-22T07:42:37.378Z,96718.55
2019-03-22T07:45:08.046Z,96723.73
2019-03-22T07:47:36.622Z,96725.50
2019-03-22T07:50:07.603Z,96732.00
2019-03-22T07:52:36.209Z,96731.77
2019-03-22T07:55:06.481Z,96739.99
2019-03-22T07:57:35.119Z,96738.90
2019-03-22T08:00:05.317Z,96727.95
2019-03-22T08:02:33.856Z,96732.34
2019-03-22T08:05:02.393Z,96732.91
2019-03-22T08:07:30.966Z,96733.10
2019-03-22T08:09:59.646Z,96736.30
2019-03-22T08:12:31.174Z,96731.41
2019-03-22T08:15:01.390Z,96738.86
2019-03-22T08:17:29.993Z,96733.16
2019-03-22T08:19:58.668Z,96735.50
2019-03-22T08:22:27.121Z,96729.94
2019-03-22T08:24:55.577Z,96735.08
2019-03-22T08:27:24.565Z,96744.60
2019-03-22T08:29:53.117Z,96739.16
2019-03-22T08:32:21.631Z,96740.41
2019-03-22T08:34:50.250Z,96744.16
2019-03-22T08:37:18.772Z,96741.13
2019-03-22T08:39:47.395Z,96737.71
2019-03-22T08:42:16.123Z,96745.33
2019-03-22T08:44:44.724Z,96747.86
2019-03-22T08:47:13.295Z,96747.44
2019-03-22T08:49:42.052Z,96751.73
2019-03-22T08:52:10.739Z,96754.69
2019-03-22T08:54:39.327Z,96752.53
2019-03-22T08:57:07.861Z,96755.09
2019-03-22T08:59:36.438Z,96756.34
2019-03-22T09:02:08.169Z,96765.66
2019-03-22T09:04:35.487Z,96763.88
2019-03-22T09:07:04.032Z,96761.66
2019-03-22T09:09:41.312Z,96772.26
2019-03-22T09:12:02.905Z,96772.14
2019-03-22T09:14:31.451Z,96771.17
2019-03-22T09:17:01.320Z,96768.58
2019-03-22T09:19:29.898Z,96760.43
2019-03-22T09:21:59.571Z,96770.98
2019-03-22T09:24:38.661Z,96768.43
2019-03-22T09:26:58.844Z,96767.16
2019-03-22T09:29:27.457Z,96765.41
2019-03-22T09:31:55.949Z,96766.30
2019-03-22T09:34:33.556Z,96766.73
2019-03-22T09:36:54.828Z,96759.91
2019-03-22T09:39:23.243Z,96761.98
2019-03-22T09:41:52.104Z,96770.46
2019-03-22T09:44:20.708Z,96766.11
2019-03-22T09:46:49.283Z,96766.50
2019-03-22T09:49:17.926Z,96769.48
2019-03-22T09:51:46.549Z,96767.25
2019-03-22T09:54:15.046Z,96764.17
2019-03-22T09:56:47.239Z,96759.88
2019-03-22T09:59:13.959Z,96754.77
2019-03-22T10:01:42.381Z,96749.77
2019-03-22T10:04:10.898Z,96750.69
2019-03-22T10:06:39.511Z,96744.79
2019-03-22T10:09:08.155Z,96743.12
2019-03-22T10:11:36.768Z,96745.80
2019-03-22T10:14:05.434Z,96751.82
2019-03-22T10:16:34.907Z,96747.53
2019-03-22T10:19:03.502Z,96744.09
2019-03-22T10:21:32.123Z,96738.25
2019-03-22T10:24:00.736Z,96737.95
2019-03-22T10:26:29.225Z,96723.95
2019-03-22T10:28:57.835Z,96724.48
2019-03-22T10:31:36.607Z,96729.30
2019-03-22T10:33:56.717Z,96731.14
2019-03-22T10:36:25.274Z,96724.05
2019-03-22T10:38:53.883Z,96719.40
2019-03-22T10:41:22.504Z,96718.61
2019-03-22T10:43:51.025Z,96722.14
2019-03-22T10:46:19.638Z,96718.01
2019-03-22T10:48:48.212Z,96715.50
2019-03-22T10:51:17.037Z,96707.47
2019-03-22T10:53:45.580Z,96697.22
2019-03-22T10:56:14.048Z,96691.27
2019-03-22T10:58:44.567Z,96699.51
2019-03-22T11:01:12.956Z,96702.58
2019-03-22T11:03:41.567Z,96700.42
2019-03-22T11:06:10.135Z,96700.87
2019-03-22T11:08:38.748Z,96689.38
2019-03-22T11:11:07.394Z,96684.34
2019-03-22T11:13:36.016Z,96687.42
2019-03-22T11:16:04.832Z,96687.06
2019-03-22T11:18:37.657Z,96687.58
2019-03-22T11:21:05.515Z,96684.20
2019-03-22T11:23:34.209Z,96688.11
2019-03-22T11:26:04.413Z,96681.25
2019-03-22T11:28:33.212Z,96686.84
2019-03-22T11:31:04.996Z,96683.41
2019-03-22T11:33:32.181Z,96688.17
2019-03-22T11:36:00.802Z,96690.34
2019-03-22T11:38:29.350Z,96695.48
2019-03-22T11:40:57.974Z,96689.47
2019-03-22T11:43:26.592Z,96687.76
2019-03-22T11:45:55.208Z,96683.05
2019-03-22T11:48:25.507Z,96680.05
2019-03-22T11:50:54.219Z,96681.75
2019-03-22T11:53:22.914Z,96691.12
2019-03-22T11:55:51.525Z,96685.92
2019-03-22T11:58:20.013Z,96681.23
2019-03-22T12:00:48.546Z,96679.97
2019-03-22T12:03:17.207Z,96683.81
2019-03-22T12:05:45.804Z,96674.85
2019-03-22T12:08:14.352Z,96668.45
2019-03-22T12:10:42.964Z,96679.17
2019-03-22T12:13:11.678Z,96665.46
2019-03-22T12:15:40.141Z,96662.90
2019-03-22T12:18:08.753Z,96661.20
2019-03-22T12:20:37.364Z,96659.02
2019-03-22T12:23:06.511Z,96651.76
2019-03-22T12:25:35.121Z,96645.34
2019-03-22T12:28:03.754Z,96649.63
2019-03-22T12:30:32.218Z,96651.34
2019-03-22T12:33:00.836Z,96647.91
2019-03-22T12:35:29.497Z,96649.63
2019-03-22T12:37:58.107Z,96640.67
2019-03-22T12:40:27.021Z,96634.28
2019-03-22T12:42:56.729Z,96627.87
2019-03-22T12:45:30.802Z,96619.34
2019-03-22T12:47:59.462Z,96625.80
2019-03-22T12:50:28.677Z,96621.95
2019-03-22T12:52:57.286Z,96613.41
2019-03-22T12:55:25.909Z,96612.10
2019-03-22T12:57:54.523Z,96611.68
2019-03-22T13:00:25.216Z,96610.39
2019-03-22T13:02:55.494Z,96604.41
2019-03-22T13:05:24.232Z,96602.25
2019-03-22T13:07:52.849Z,96598.42
2019-03-22T13:10:26.475Z,96594.14
2019-03-22T13:12:55.088Z,96600.56
2019-03-22T13:15:23.771Z,96579.59
2019-03-22T13:17:52.474Z,96586.05
2019-03-22T13:20:21.118Z,96586.04
2019-03-22T13:22:49.726Z,96592.03
2019-03-22T13:25:21.177Z,96594.60
2019-03-22T13:27:50.189Z,96594.16
2019-03-22T13:30:21.781Z,96579.63
2019-03-22T13:32:52.283Z,96578.78
2019-03-22T13:35:20.521Z,96589.88
2019-03-22T13:37:49.003Z,96589.47
2019-03-22T13:40:17.547Z,96588.61
2019-03-22T13:42:46.090Z,96594.16
2019-03-22T13:45:15.705Z,96598.89
2019-03-22T13:47:44.319Z,96593.33
2019-03-22T13:50:14.017Z,96593.30
2019-03-22T13:52:42.637Z,96599.73
2019-03-22T13:55:11.488Z,96601.02
2019-03-22T13:57:40.134Z,96598.86
2019-03-22T14:00:11.497Z,96597.18
2019-03-22T14:02:39.968Z,96603.16
2019-03-22T14:05:09.368Z,96601.89
2019-03-22T14:07:37.972Z,96601.45
2019-03-22T14:10:09.330Z,96590.33
2019-03-22T14:12:37.858Z,96584.35
2019-03-22T14:15:09.548Z,96574.09
2019-03-22T14:17:43.849Z,96568.95
2019-03-22T14:20:12.508Z,96565.50
2019-03-22T14:22:41.048Z,96564.23
2019-03-22T14:25:09.762Z,96556.95
2019-03-22T14:27:38.337Z,96567.23
2019-03-22T14:30:08.993Z,96554.80
2019-03-22T14:32:37.597Z,96558.25
2019-03-22T14:35:07.602Z,96552.67
2019-03-22T14:37:36.219Z,96551.84
2019-03-22T14:40:06.746Z,96544.12
2019-03-22T14:42:35.339Z,96537.70
2019-03-22T14:45:06.189Z,96539.00
2019-03-22T14:47:34.745Z,96537.69
2019-03-22T14:50:03.756Z,96545.81
2019-03-22T14:52:32.376Z,96545.38
2019-03-22T14:55:00.850Z,96556.06
2019-03-22T14:57:29.447Z,96553.50
2019-03-22T14:59:59.278Z,96546.67
2019-03-22T15:02:28.085Z,96554.38
2019-03-22T15:04:56.653Z,96567.62
2019-03-22T15:07:25.128Z,96559.07
2019-03-22T15:09:53.706Z,96555.63
2019-03-22T15:12:22.212Z,96565.43
2019-03-22T15:15:08.901Z,96572.22
2019-03-22T15:17:54.073Z,96567.02
2019-03-22T15:20:24.463Z,96575.54
2019-03-22T15:23:03.929Z,96576.38
2019-03-22T15:25:34.291Z,96576.35
2019-03-22T15:28:14.045Z,96578.45
2019-03-22T15:30:53.446Z,96588.27
2019-03-22T15:33:35.419Z,96587.81
2019-03-22T15:36:17.746Z,96585.64
2019-03-22T15:38:51.117Z,96591.56
2019-03-22T15:41:21.423Z,96579.59
2019-03-22T15:43:49.947Z,96585.97
2019-03-22T15:46:18.638Z,96581.70
2019-03-22T15:48:48.723Z,96580.77
2019-03-22T15:51:17.269Z,96588.45
2019-03-22T15:53:45.729Z,96588.44
2019-03-22T15:56:14.389Z,96590.96
2019-03-22T15:58:42.997Z,96587.10
2019-03-22T16:01:11.796Z,96581.97
2019-03-22T16:03:44.336Z,96588.80
2019-03-22T16:06:10.822Z,96591.70
2019-03-22T16:08:39.367Z,96602.37
2019-03-22T16:11:07.984Z,96612.57
2019-03-22T16:13:36.526Z,96611.26
2019-03-22T16:16:08.679Z,96607.38
2019-03-22T16:18:37.170Z,96600.03
2019-03-22T16:21:05.701Z,96606.45
2019-03-22T16:23:34.254Z,96606.80
2019-03-22T16:26:02.860Z,96610.55
2019-03-22T16:28:31.466Z,96604.95
2019-03-22T16:31:00.074Z,96605.74
2019-03-22T16:33:28.661Z,96608.25
2019-03-22T16:35:57.214Z,96608.67
2019-03-22T16:38:25.758Z,96606.45
2019-03-22T16:40:54.428Z,96617.03
2019-03-22T16:43:22.893Z,96618.69
2019-03-22T16:45:51.496Z,96617.37
2019-03-22T16:48:21.518Z,96610.98
2019-03-22T16:50:50.237Z,96615.70
2019-03-22T16:53:19.016Z,96618.23
2019-03-22T16:55:50.443Z,96623.32
2019-03-22T16:58:18.985Z,96629.26
2019-03-22T17:00:49.790Z,96631.79
2019-03-22T17:03:17.991Z,96628.36
2019-03-22T17:05:46.532Z,96630.88
2019-03-22T17:08:15.161Z,96620.64
2019-03-22T17:10:43.760Z,96614.66
2019-03-22T17:13:12.453Z,96615.91
2019-03-22T17:15:41.138Z,96610.73
2019-03-22T17:18:09.724Z,96610.34
2019-03-22T17:20:38.261Z,96623.09
2019-03-22T17:23:06.901Z,96629.02
2019-03-22T17:25:35.505Z,96629.44
2019-03-22T17:28:04.114Z,96633.30
2019-03-22T17:30:32.617Z,96635.01
2019-03-22T17:33:02.614Z,96632.80
2019-03-22T17:35:31.165Z,96641.68
2019-03-22T17:37:59.704Z,96641.16
2019-03-22T17:40:28.248Z,96643.23
2019-03-22T17:42:56.792Z,96641.50
2019-03-22T17:45:25.430Z,96624.42
2019-03-22T17:47:54.036Z,96624.81
2019-03-22T17:50:22.691Z,96621.41
2019-03-22T17:52:51.303Z,96633.72
2019-03-22T17:55:19.878Z,96634.57
2019-03-22T17:57:48.510Z,96645.61
2019-03-22T18:00:20.565Z,96639.65
2019-03-22T18:02:50.466Z,96640.50
2019-03-22T18:05:19.134Z,96638.83
2019-03-22T18:07:47.697Z,96645.58
2019-03-22T18:10:16.448Z,96647.64
2019-03-22T18:12:45.152Z,96648.06
2019-03-22T18:15:14.446Z,96637.82
2019-03-22T18:17:43.120Z,96639.48
2019-03-22T18:20:14.327Z,96642.92
2019-03-22T18:22:42.937Z,96648.82
2019-03-22T18:25:13.263Z,96645.84
2019-03-22T18:27:41.868Z,96648.09
2019-03-22T18:30:15.815Z,96645.12
2019-03-22T18:32:44.343Z,96645.94
2019-03-22T18:35:13.384Z,96650.65
2019-03-22T18:37:41.994Z,96654.91
2019-03-22T18:40:15.211Z,96663.80
2019-03-22T18:42:43.188Z,96656.94
2019-03-22T18:45:14.045Z,96665.02
2019-03-22T18:47:43.155Z,96670.52
2019-03-22T18:50:13.211Z,96668.78
2019-03-22T18:52:41.816Z,96671.80
2019-03-22T18:55:11.184Z,96674.34
2019-03-22T18:57:39.817Z,96677.72
2019-03-22T19:00:11.601Z,96668.78
2019-03-22T19:02:40.215Z,96677.67
2019-03-22T19:05:09.222Z,96672.97
2019-03-22T19:07:37.830Z,96672.94
2019-03-22T19:10:09.359Z,96670.37
2019-03-22T19:12:38.047Z,96670.31
2019-03-22T19:15:09.281Z,96667.30
2019-03-22T19:17:40.838Z,96668.44
2019-03-22T19:20:14.313Z,96659.94
2019-03-22T19:22:42.924Z,96656.99
2019-03-22T19:25:11.938Z,96652.73
2019-03-22T19:27:40.559Z,96643.77
2019-03-22T19:30:16.770Z,96651.46
2019-03-22T19:32:48.068Z,96648.88
2019-03-22T19:35:16.741Z,96654.83
2019-03-22T19:37:48.025Z,96648.41
2019-03-22T19:40:17.230Z,96644.59
2019-03-22T19:42:45.759Z,96642.89
2019-03-22T19:45:16.758Z,96645.90
2019-03-22T19:47:45.755Z,96647.56
2019-03-22T19:50:15.965Z,96647.56
2019-03-22T19:52:44.905Z,96647.50
2019-03-22T19:55:14.032Z,96648.77
2019-03-22T19:57:42.571Z,96650.44
2019-03-22T20:00:17.129Z,96647.50
2019-03-22T20:02:45.671Z,96648.77
2019-03-22T20:05:31.512Z,96647.89
2019-03-22T20:08:00.766Z,96647.07
2019-03-22T20:10:29.367Z,96643.67
2019-03-22T20:12:58.052Z,96641.51
2019-03-22T20:15:26.581Z,96638.50
2019-03-22T20:17:55.178Z,96638.03
2019-03-22T20:20:24.049Z,96640.52
2019-03-22T20:22:52.633Z,96643.53
2019-03-22T20:25:21.239Z,96631.98
2019-03-22T20:27:49.841Z,96632.83
2019-03-22T20:30:19.252Z,96634.10
2019-03-22T20:32:47.794Z,96631.48
2019-03-22T20:35:17.133Z,96635.31
2019-03-22T20:37:46.098Z,96630.17
2019-03-22T20:40:19.552Z,96634.84
2019-03-22T20:42:48.160Z,96629.28
2019-03-22T20:45:23.911Z,96629.25
2019-03-22T20:47:47.325Z,96621.98
2019-03-22T20:50:16.538Z,96620.67
2019-03-22T20:52:45.150Z,96625.28
2019-03-22T20:55:14.064Z,96620.53
2019-03-22T20:57:42.716Z,96616.20
2019-03-22T21:00:16.061Z,96616.13
2019-03-22T21:02:44.603Z,96621.61
2019-03-22T21:05:26.405Z,96626.17
2019-03-22T21:07:46.322Z,96626.52
2019-03-22T21:10:14.966Z,96631.53
2019-03-22T21:12:43.505Z,96624.66
2019-03-22T21:15:23.903Z,96625.43
2019-03-22T21:17:45.250Z,96633.45
2019-03-22T21:20:14.257Z,96627.85
2019-03-22T21:22:42.825Z,96626.96
2019-03-22T21:25:11.900Z,96630.36
2019-03-22T21:27:40.550Z,96632.02
2019-03-22T21:30:12.002Z,96631.55
2019-03-22T21:32:45.256Z,96625.61
2019-03-22T21:35:21.901Z,96631.17
2019-03-22T21:37:41.346Z,96635.84
2019-03-22T21:40:13.353Z,96632.44
2019-03-22T21:42:41.986Z,96630.23
2019-03-22T21:45:11.298Z,96630.19
2019-03-22T21:47:41.139Z,96632.34
2019-03-22T21:50:10.546Z,96628.95
2019-03-22T21:52:39.420Z,96624.28
2019-03-22T21:55:11.101Z,96623.02
2019-03-22T21:57:39.604Z,96624.70
2019-03-22T22:00:10.553Z,96626.36
2019-03-22T22:02:39.019Z,96622.55
2019-03-22T22:05:08.651Z,96620.38
2019-03-22T22:07:37.655Z,96616.17
2019-03-22T22:10:08.099Z,96623.83
2019-03-22T22:12:36.630Z,96616.60
2019-03-22T22:15:11.204Z,96611.93
2019-03-22T22:17:42.577Z,96614.05
2019-03-22T22:20:11.957Z,96608.92
2019-03-22T22:22:41.276Z,96608.75
2019-03-22T22:25:10.188Z,96611.17
2019-03-22T22:27:38.852Z,96610.61
2019-03-22T22:30:09.824Z,96598.17
2019-03-22T22:32:38.363Z,96599.78
2019-03-22T22:35:08.381Z,96590.19
2019-03-22T22:37:36.977Z,96588.81
2019-03-22T22:40:07.554Z,96587.73
2019-03-22T22:42:36.240Z,96593.39
2019-03-22T22:45:09.572Z,96588.52
2019-03-22T22:47:38.177Z,96592.14
2019-03-22T22:50:10.942Z,96597.41
2019-03-22T22:52:39.546Z,96598.31
2019-03-22T22:55:08.187Z,96597.61
2019-03-22T22:57:36.750Z,96596.59
2019-03-22T23:00:14.240Z,96599.77
2019-03-22T23:02:43.512Z,96600.45
2019-03-22T23:05:12.578Z,96602.87
2019-03-22T23:07:41.285Z,96601.02
2019-03-22T23:10:12.605Z,96606.47
2019-03-22T23:12:40.549Z,96604.18
2019-03-22T23:15:10.359Z,96603.63
2019-03-22T23:17:38.893Z,96597.28
2019-03-22T23:20:10.866Z,96600.36
2019-03-22T23:22:39.470Z,96598.20
2019-03-22T23:25:16.164Z,96592.64
2019-03-22T23:27:41.712Z,96592.98
2019-03-22T23:30:13.678Z,96594.05
2019-03-22T23:32:42.289Z,96590.95
2019-03-22T23:35:11.133Z,96589.20
2019-03-22T23:37:39.743Z,96589.98
2019-03-22T23:40:09.251Z,96589.86
2019-03-22T23:42:37.845Z,96591.33
2019-03-22T23:45:08.139Z,96587.28
2019-03-22T23:47:36.592Z,96588.35
2019-03-22T23:50:09.760Z,96595.32
2019-03-22T23:52:38.365Z,96588.83
2019-03-22T23:55:07.798Z,96594.01
2019-03-22T23:57:36.424Z,96590.02
